»·PEaware :: N2570U KVCV-KSBD

N2570U :: KVCV-KSBD

FLIGHT INFORMATION

Flight Status: Arrived
Operator: Privately registered:
United States
More flights under this callsign
Pilot: Scott W. (31825)
Aircraft: PIPER PA-28 CHEROKEE ARCHER
(P28A)
More flights by this aircraft type
Origin: KVCV Socal Logistics
United States
Destination: KSBD San Bernardino Intl
United States
More flights between these airports :: More routes between these airports
Route:
File this flight plan on PilotEdge
Remarks:
Altitude:
(Current/Filed)
7,500ft
Speed:
(Current/Filed)
110kts
Departed: 25-Nov-20 09:26 PM
Arrived: 25-Nov-20 09:52 PM
Distance/Time
Traveled:
31nm/0:25
Distance/Time
To Go:
Arrived

Flight Plot

Page will automatically refresh every two minutes.

Flight plan parsing failed; only flown route is shown


Map Options




Map Legend


Flown Route
Filed Route
Departure Airport
Arrival Airport
Navaid (VOR, NDB)
Fix

Horizontal Profiles

Position Reports

Time Latitude Longitude Heading Altitude Ground
Speed
25-Nov-20 21:01 34.591874 -117.369191 180 2859ft 0kts
25-Nov-20 21:03 34.591874 -117.369191 180 2859ft 0kts
25-Nov-20 21:03 34.591874 -117.369191 180 2859ft 0kts
25-Nov-20 21:04 34.591874 -117.369191 180 2859ft 0kts
25-Nov-20 21:05 34.591874 -117.369191 180 2859ft 0kts
25-Nov-20 21:06 34.591874 -117.369191 180 2859ft 0kts
25-Nov-20 21:07 34.591874 -117.369191 180 2859ft 0kts
25-Nov-20 21:08 34.591874 -117.369191 180 2859ft 0kts
25-Nov-20 21:09 34.591874 -117.369191 180 2859ft 0kts
25-Nov-20 21:10 34.591874 -117.369191 180 2859ft 0kts
25-Nov-20 21:11 34.591874 -117.369191 180 2859ft 0kts
25-Nov-20 21:12 34.591874 -117.369191 180 2859ft 0kts
25-Nov-20 21:13 34.591872 -117.369191 179 2859ft 0kts
25-Nov-20 21:14 34.591872 -117.369191 179 2859ft 0kts
25-Nov-20 21:15 34.591870 -117.369191 180 2859ft 0kts
25-Nov-20 21:16 34.593455 -117.367950 13 2856ft 12kts
25-Nov-20 21:17 34.598762 -117.366691 9 2844ft 6kts
25-Nov-20 21:18 34.598781 -117.366687 9 2844ft 0kts
25-Nov-20 21:19 34.598780 -117.366687 9 2844ft 0kts
25-Nov-20 21:20 34.598780 -117.366687 9 2844ft 0kts
25-Nov-20 21:21 34.598780 -117.366687 9 2844ft 0kts
25-Nov-20 21:22 34.598780 -117.366687 9 2844ft 0kts
25-Nov-20 21:23 34.599122 -117.366606 11 2843ft 0kts
25-Nov-20 21:24 34.599841 -117.367343 224 2843ft 3kts
25-Nov-20 21:25 34.587991 -117.382067 225 3385ft 76kts
25-Nov-20 21:26 34.569608 -117.392418 188 4214ft 75kts
25-Nov-20 21:27 34.549270 -117.398759 198 4992ft 75kts
25-Nov-20 21:28 34.529129 -117.408517 202 5730ft 76kts
25-Nov-20 21:29 34.507278 -117.416574 199 6441ft 77kts
25-Nov-20 21:30 34.485071 -117.424852 206 7098ft 77kts
25-Nov-20 21:31 34.462879 -117.432615 191 7691ft 82kts
25-Nov-20 21:32 34.439119 -117.434957 196 7592ft 85kts
25-Nov-20 21:33 34.411159 -117.437732 194 7396ft 103kts
25-Nov-20 21:34 34.381470 -117.443091 187 7373ft 101kts
25-Nov-20 21:35 34.351762 -117.444896 191 7442ft 99kts
25-Nov-20 21:36 34.321709 -117.443105 184 7504ft 101kts
25-Nov-20 21:37 34.292132 -117.442556 186 7590ft 103kts
25-Nov-20 21:38 34.261982 -117.435770 176 7617ft 108kts
25-Nov-20 21:39 34.234447 -117.418814 137 7377ft 116kts
25-Nov-20 21:40 34.213196 -117.390070 133 6814ft 113kts
25-Nov-20 21:41 34.193095 -117.363250 182 6019ft 90kts
25-Nov-20 21:42 34.197016 -117.373827 40 4995ft 101kts
25-Nov-20 21:43 34.185288 -117.347303 136 4188ft 88kts
25-Nov-20 21:44 34.167963 -117.322532 135 3473ft 92kts
25-Nov-20 21:45 34.151479 -117.297798 133 2649ft 89kts
25-Nov-20 21:46 34.136771 -117.273271 128 2030ft 89kts
25-Nov-20 21:47 34.121662 -117.252674 178 2125ft 78kts
25-Nov-20 21:48 34.104780 -117.265264 228 1894ft 71kts
25-Nov-20 21:49 34.091733 -117.280093 164 1563ft 73kts
25-Nov-20 21:50 34.088730 -117.257170 71 1205ft 81kts
25-Nov-20 21:51 34.093035 -117.242508 71 1098ft 10kts
25-Nov-20 21:52 34.094161 -117.242046 358 1098ft 0kts
25-Nov-20 21:53 34.094618 -117.242047 358 1098ft 10kts
25-Nov-20 21:54 34.096992 -117.235371 68 1117ft 29kts
25-Nov-20 21:55 34.099615 -117.227735 22 1136ft 12kts
25-Nov-20 21:56 34.100563 -117.226694 162 1139ft 0kts
25-Nov-20 21:57 34.100563 -117.226694 162 1139ft 0kts
25-Nov-20 21:58 34.100563 -117.226694 162 1139ft 0kts

Navigation Log

Ident Type
Flight plan parsing failed, navigation log unavailable